createdAt,value
2023-08-04T00:01:49.823Z,1.20
2023-08-04T00:04:18.469Z,1.30
2023-08-04T00:06:51.913Z,1.27
2023-08-04T00:09:20.341Z,1.30
2023-08-04T00:11:49.056Z,1.20
2023-08-04T00:14:17.633Z,1.40
2023-08-04T00:16:46.029Z,1.50
2023-08-04T00:19:16.316Z,1.00
2023-08-04T00:21:45.106Z,1.03
2023-08-04T00:24:15.148Z,1.27
2023-08-04T00:26:46.082Z,0.93
2023-08-04T00:29:14.439Z,1.33
2023-08-04T00:31:43.575Z,1.30
2023-08-04T00:34:12.066Z,1.10
2023-08-04T00:36:40.316Z,1.10
2023-08-04T00:39:08.520Z,1.00
2023-08-04T00:41:38.275Z,1.10
2023-08-04T00:44:06.680Z,1.07
2023-08-04T00:46:35.298Z,1.47
2023-08-04T00:49:04.161Z,1.47
2023-08-04T00:51:33.104Z,1.43
2023-08-04T00:54:01.980Z,1.50
2023-08-04T00:56:30.969Z,1.20
2023-08-04T00:59:01.533Z,1.13
2023-08-04T01:01:29.915Z,1.20
2023-08-04T01:04:01.966Z,1.07
2023-08-04T01:06:37.460Z,1.90
2023-08-04T01:09:10.911Z,1.53
2023-08-04T01:11:46.666Z,1.13
2023-08-04T01:14:18.566Z,1.67
2023-08-04T01:16:47.579Z,1.53
2023-08-04T01:19:16.484Z,1.37
2023-08-04T01:21:47.139Z,1.30
2023-08-04T01:24:16.042Z,1.27
2023-08-04T01:26:46.459Z,1.50
2023-08-04T01:29:17.424Z,1.17
2023-08-04T01:31:46.391Z,1.00
2023-08-04T01:34:14.847Z,1.13
2023-08-04T01:36:43.202Z,1.70
2023-08-04T01:39:13.021Z,1.23
2023-08-04T01:41:41.095Z,1.33
2023-08-04T01:44:09.217Z,1.47
2023-08-04T01:46:37.342Z,1.00
2023-08-04T01:49:05.426Z,1.37
2023-08-04T01:51:33.495Z,0.90
2023-08-04T01:54:01.572Z,1.10
2023-08-04T01:56:31.024Z,1.50
2023-08-04T01:58:59.122Z,1.10
2023-08-04T02:01:27.364Z,1.50
2023-08-04T02:03:55.425Z,1.17
2023-08-04T02:06:23.564Z,1.03
2023-08-04T02:08:51.747Z,1.27
2023-08-04T02:11:19.832Z,1.43
2023-08-04T02:13:49.259Z,1.30
2023-08-04T02:16:17.410Z,1.03
2023-08-04T02:18:45.538Z,0.87
2023-08-04T02:21:13.649Z,1.23
2023-08-04T02:23:41.746Z,1.30
2023-08-04T02:26:09.874Z,1.50
2023-08-04T02:28:37.937Z,1.27
2023-08-04T02:31:07.363Z,1.37
2023-08-04T02:33:35.463Z,1.30
2023-08-04T02:36:04.127Z,1.10
2023-08-04T02:38:32.228Z,1.23
2023-08-04T02:41:04.161Z,1.50
2023-08-04T02:43:32.412Z,1.07
2023-08-04T02:46:00.486Z,1.10
2023-08-04T02:48:29.968Z,1.40
2023-08-04T02:51:04.157Z,1.37
2023-08-04T02:53:33.049Z,1.47
2023-08-04T02:56:01.263Z,1.27
2023-08-04T02:58:29.909Z,1.40
2023-08-04T03:00:58.032Z,1.20
2023-08-04T03:03:26.146Z,1.80
2023-08-04T03:05:58.551Z,1.77
2023-08-04T03:08:26.867Z,1.40
2023-08-04T03:10:55.135Z,1.20
2023-08-04T03:13:23.748Z,1.30
2023-08-04T03:15:56.844Z,1.30
2023-08-04T03:18:25.050Z,1.10
2023-08-04T03:20:53.160Z,1.20
2023-08-04T03:23:23.758Z,1.17
2023-08-04T03:25:52.191Z,1.30
2023-08-04T03:28:20.269Z,1.30
2023-08-04T03:30:48.434Z,1.17
2023-08-04T03:33:16.544Z,1.50
2023-08-04T03:35:44.645Z,1.93
2023-08-04T03:38:12.917Z,0.80
2023-08-04T03:40:42.776Z,1.40
2023-08-04T03:43:10.914Z,1.30
2023-08-04T03:45:39.134Z,1.20
2023-08-04T03:48:07.218Z,1.20
2023-08-04T03:50:35.505Z,1.20
2023-08-04T03:53:03.656Z,1.43
2023-08-04T03:55:31.963Z,2.43
2023-08-04T03:58:01.379Z,1.40
2023-08-04T04:00:29.732Z,1.90
2023-08-04T04:02:57.916Z,1.17
2023-08-04T04:05:26.094Z,1.17
2023-08-04T04:07:54.176Z,1.00
2023-08-04T04:10:22.303Z,2.07
2023-08-04T04:12:50.412Z,1.63
2023-08-04T04:15:19.898Z,1.63
2023-08-04T04:17:48.039Z,1.77
2023-08-04T04:20:16.230Z,1.13
2023-08-04T04:22:44.286Z,1.57
2023-08-04T04:25:12.413Z,1.63
2023-08-04T04:27:40.560Z,1.30
2023-08-04T04:30:09.482Z,0.97
2023-08-04T04:32:38.984Z,1.27
2023-08-04T04:35:07.997Z,1.53
2023-08-04T04:37:36.095Z,1.63
2023-08-04T04:40:04.604Z,1.30
2023-08-04T04:42:34.558Z,1.07
2023-08-04T04:45:02.656Z,1.23
2023-08-04T04:47:30.791Z,1.30
2023-08-04T04:50:00.402Z,1.40
2023-08-04T04:52:33.457Z,1.67
2023-08-04T04:55:01.909Z,1.57
2023-08-04T04:57:29.744Z,1.33
2023-08-04T04:59:57.977Z,1.67
2023-08-04T05:02:26.396Z,1.40
2023-08-04T05:04:54.506Z,1.33
2023-08-04T05:07:24.067Z,1.30
2023-08-04T05:09:52.264Z,1.57
2023-08-04T05:12:21.019Z,1.60
2023-08-04T05:14:49.244Z,1.20
2023-08-04T05:17:17.341Z,1.33
2023-08-04T05:19:46.442Z,1.00
2023-08-04T05:22:14.841Z,1.50
2023-08-04T05:24:45.039Z,1.60
2023-08-04T05:27:14.404Z,2.23
2023-08-04T05:29:42.533Z,1.50
2023-08-04T05:32:10.682Z,1.20
2023-08-04T05:34:39.262Z,1.20
2023-08-04T05:37:07.804Z,1.20
2023-08-04T05:39:36.837Z,1.37
2023-08-04T05:42:08.293Z,1.73
2023-08-04T05:44:36.760Z,1.20
2023-08-04T05:47:05.400Z,1.50
2023-08-04T05:49:34.112Z,1.30
2023-08-04T05:52:04.542Z,1.03
2023-08-04T05:54:32.655Z,1.17
2023-08-04T05:57:02.310Z,1.00
2023-08-04T05:59:32.596Z,1.23
2023-08-04T06:02:00.792Z,1.20
2023-08-04T06:04:28.926Z,1.40
2023-08-04T06:06:57.081Z,1.60
2023-08-04T06:09:25.203Z,1.43
2023-08-04T06:11:53.486Z,1.20
2023-08-04T06:14:21.816Z,1.20
2023-08-04T06:16:51.272Z,1.10
2023-08-04T06:19:19.361Z,1.07
2023-08-04T06:21:47.908Z,1.07
2023-08-04T06:24:28.287Z,1.53
2023-08-04T06:26:56.479Z,1.30
2023-08-04T06:29:24.549Z,0.80
2023-08-04T06:31:54.287Z,1.03
2023-08-04T06:34:22.979Z,0.83
2023-08-04T06:36:51.571Z,1.20
2023-08-04T06:39:20.489Z,1.60
2023-08-04T06:41:49.752Z,1.00
2023-08-04T06:44:19.272Z,1.10
2023-08-04T06:46:47.396Z,1.27
2023-08-04T06:49:18.326Z,1.17
2023-08-04T06:51:48.647Z,0.90
2023-08-04T06:54:17.877Z,1.13
2023-08-04T06:56:46.579Z,1.03
2023-08-04T06:59:15.525Z,0.90
2023-08-04T07:01:44.437Z,1.13
2023-08-04T07:04:13.746Z,1.00
2023-08-04T07:06:44.109Z,1.10
2023-08-04T07:09:13.114Z,1.17
2023-08-04T07:11:41.217Z,1.10
2023-08-04T07:14:09.977Z,1.00
2023-08-04T07:16:38.491Z,0.80
2023-08-04T07:19:06.545Z,1.00
2023-08-04T07:21:34.695Z,1.00
2023-08-04T07:24:04.590Z,1.17
2023-08-04T07:26:33.547Z,1.00
2023-08-04T07:29:02.165Z,1.00
2023-08-04T07:31:32.893Z,1.10
2023-08-04T07:34:01.428Z,0.77
2023-08-04T07:36:29.723Z,2.03
2023-08-04T07:38:58.334Z,0.90
2023-08-04T07:41:28.794Z,1.13
2023-08-04T07:43:57.732Z,0.70
2023-08-04T07:46:27.300Z,1.40
2023-08-04T07:48:56.600Z,0.80
2023-08-04T07:51:25.830Z,1.07
2023-08-04T07:53:54.747Z,0.93
2023-08-04T07:56:23.788Z,0.80
2023-08-04T07:58:54.259Z,0.80
2023-08-04T08:01:24.473Z,0.90
2023-08-04T08:03:56.168Z,0.97
2023-08-04T08:06:24.795Z,1.10
2023-08-04T08:08:53.332Z,0.60
2023-08-04T08:11:21.737Z,0.73
2023-08-04T08:13:50.176Z,0.80
2023-08-04T08:16:20.559Z,0.80
2023-08-04T08:18:49.062Z,0.60
2023-08-04T08:21:18.078Z,0.70
2023-08-04T08:23:47.170Z,0.70
2023-08-04T08:26:16.240Z,0.60
2023-08-04T08:28:44.965Z,0.70
2023-08-04T08:31:13.110Z,0.60
2023-08-04T08:33:43.060Z,0.90
2023-08-04T08:36:11.121Z,0.70
2023-08-04T08:38:39.196Z,0.80
2023-08-04T08:41:08.984Z,0.63
2023-08-04T08:43:37.114Z,0.83
2023-08-04T08:46:06.025Z,0.70
2023-08-04T08:48:37.642Z,0.80
2023-08-04T08:51:12.117Z,0.80
2023-08-04T08:53:41.673Z,0.87
2023-08-04T08:56:10.307Z,1.00
2023-08-04T08:58:38.939Z,0.80
2023-08-04T09:01:07.182Z,0.90
2023-08-04T09:03:37.072Z,0.90
2023-08-04T09:06:06.969Z,0.73
2023-08-04T09:08:35.417Z,2.70
2023-08-04T09:11:03.577Z,0.60
2023-08-04T09:13:31.850Z,1.17
2023-08-04T09:16:00.724Z,1.00
2023-08-04T09:18:30.406Z,0.70
2023-08-04T09:21:02.827Z,0.70
2023-08-04T09:23:37.142Z,1.20
2023-08-04T09:26:05.775Z,0.77
2023-08-04T09:28:33.963Z,0.60
2023-08-04T09:31:03.281Z,0.70
2023-08-04T09:33:31.710Z,0.90
2023-08-04T09:36:07.669Z,1.00
2023-08-04T09:38:38.871Z,1.07
2023-08-04T09:41:08.574Z,1.00
2023-08-04T09:46:15.419Z,0.80
2023-08-04T09:48:43.659Z,0.73
2023-08-04T09:51:14.107Z,0.83
2023-08-04T09:53:45.774Z,0.50
2023-08-04T09:56:15.246Z,0.70
2023-08-04T09:58:44.569Z,0.60
2023-08-04T10:01:13.192Z,0.70
2023-08-04T10:03:44.167Z,0.90
2023-08-04T10:06:12.587Z,1.93
2023-08-04T10:08:42.538Z,0.80
2023-08-04T10:11:12.325Z,0.50
2023-08-04T10:13:43.082Z,0.80
2023-08-04T10:16:14.859Z,0.80
2023-08-04T10:18:51.285Z,0.80
2023-08-04T10:21:21.587Z,0.60
2023-08-04T10:23:50.172Z,0.87
2023-08-04T10:26:19.719Z,0.80
2023-08-04T10:29:03.610Z,1.03
2023-08-04T10:31:50.147Z,0.80
2023-08-04T10:34:26.866Z,0.80
2023-08-04T10:36:56.870Z,1.20
2023-08-04T10:39:31.195Z,1.23
2023-08-04T10:42:01.783Z,1.20
2023-08-04T10:44:33.220Z,0.80
2023-08-04T10:47:02.750Z,0.97
2023-08-04T10:49:30.908Z,0.87
2023-08-04T10:52:00.095Z,1.00
2023-08-04T10:54:28.230Z,1.10
2023-08-04T10:56:56.341Z,1.03
2023-08-04T10:59:27.176Z,1.00
2023-08-04T11:01:56.403Z,1.00
2023-08-04T11:04:25.112Z,0.80
2023-08-04T11:06:53.939Z,0.60
2023-08-04T11:09:22.745Z,0.70
2023-08-04T11:11:51.817Z,0.60
2023-08-04T11:14:21.042Z,0.70
2023-08-04T11:16:51.478Z,0.70
2023-08-04T11:19:22.793Z,1.00
2023-08-04T11:21:51.656Z,1.00
2023-08-04T11:24:25.524Z,0.73
2023-08-04T11:26:54.508Z,0.87
2023-08-04T11:29:23.257Z,0.90
2023-08-04T11:31:55.154Z,0.80
2023-08-04T11:34:24.026Z,0.63
2023-08-04T11:36:52.856Z,0.80
2023-08-04T11:39:21.135Z,0.80
2023-08-04T11:41:51.709Z,0.80
2023-08-04T11:44:20.179Z,1.73
2023-08-04T11:46:48.684Z,1.30
2023-08-04T11:49:18.570Z,1.33
2023-08-04T11:51:47.347Z,1.43
2023-08-04T11:54:19.624Z,0.90
2023-08-04T11:56:48.147Z,1.37
2023-08-04T11:59:16.565Z,1.40
2023-08-04T12:02:01.187Z,1.07
2023-08-04T12:04:38.019Z,1.53
2023-08-04T12:07:10.221Z,1.20
2023-08-04T12:09:40.001Z,1.10
2023-08-04T12:12:10.611Z,0.90
2023-08-04T12:14:55.581Z,1.00
2023-08-04T12:17:40.090Z,0.93
2023-08-04T12:20:12.036Z,3.00
2023-08-04T12:22:42.710Z,1.87
2023-08-04T12:25:13.139Z,1.70
2023-08-04T12:27:43.171Z,1.43
2023-08-04T12:30:15.005Z,1.60
2023-08-04T12:32:44.609Z,1.13
2023-08-04T12:35:15.562Z,1.40
2023-08-04T12:37:45.014Z,1.20
2023-08-04T12:40:14.689Z,1.47
2023-08-04T12:42:45.042Z,1.10
2023-08-04T12:45:13.408Z,1.87
2023-08-04T12:47:41.910Z,1.23
2023-08-04T12:50:10.830Z,1.47
2023-08-04T12:52:40.661Z,1.00
2023-08-04T12:55:09.822Z,0.90
2023-08-04T12:57:38.214Z,1.13
2023-08-04T13:00:07.694Z,1.07
2023-08-04T13:02:36.202Z,0.93
2023-08-04T13:05:05.169Z,1.20
2023-08-04T13:07:33.223Z,1.17
2023-08-04T13:10:02.661Z,1.00
2023-08-04T13:12:30.794Z,0.80
2023-08-04T13:14:58.862Z,1.10
2023-08-04T13:17:26.913Z,0.80
2023-08-04T13:19:55.033Z,1.10
2023-08-04T13:22:23.174Z,0.80
2023-08-04T13:24:51.690Z,0.90
2023-08-04T13:27:21.298Z,1.10
2023-08-04T13:29:49.755Z,1.10
2023-08-04T13:32:18.017Z,1.30
2023-08-04T13:34:46.233Z,1.27
2023-08-04T13:37:14.383Z,1.00
2023-08-04T13:39:42.550Z,1.10
2023-08-04T13:42:10.720Z,1.50
2023-08-04T13:44:40.120Z,1.33
2023-08-04T13:47:08.663Z,1.63
2023-08-04T13:49:36.802Z,1.73
2023-08-04T13:52:05.468Z,1.33
2023-08-04T13:54:33.541Z,1.50
2023-08-04T13:57:01.623Z,2.00
2023-08-04T13:59:29.684Z,1.87
2023-08-04T14:01:59.309Z,2.00
2023-08-04T14:04:27.487Z,2.13
2023-08-04T14:06:55.588Z,2.30
2023-08-04T14:09:23.682Z,2.23
2023-08-04T14:11:52.205Z,2.50
2023-08-04T14:14:20.566Z,2.13
2023-08-04T14:16:48.815Z,2.20
2023-08-04T14:19:18.443Z,2.40
2023-08-04T14:21:46.735Z,2.23
2023-08-04T14:24:15.115Z,2.40
2023-08-04T14:26:43.218Z,2.70
2023-08-04T14:29:16.550Z,2.13
2023-08-04T14:31:44.799Z,2.27
2023-08-04T14:34:13.650Z,2.37
2023-08-04T14:36:43.119Z,2.33
2023-08-04T14:39:11.182Z,2.13
2023-08-04T14:41:39.375Z,4.33
2023-08-04T14:44:07.491Z,2.60
2023-08-04T14:46:35.674Z,2.90
2023-08-04T14:49:05.572Z,2.17
2023-08-04T14:51:37.564Z,2.77
2023-08-04T14:54:08.202Z,2.57
2023-08-04T14:56:36.351Z,2.70
2023-08-04T14:59:04.956Z,3.00
2023-08-04T15:01:33.042Z,2.17
2023-08-04T15:04:01.140Z,2.40
2023-08-04T15:06:29.273Z,2.70
2023-08-04T15:08:57.338Z,2.00
2023-08-04T15:11:26.794Z,2.17
2023-08-04T15:13:54.935Z,1.87
2023-08-04T15:16:23.064Z,30.60
2023-08-04T15:18:51.198Z,5.87
2023-08-04T15:21:19.285Z,18.97
2023-08-04T15:23:48.469Z,30.40
2023-08-04T15:26:16.962Z,6.57
2023-08-04T15:28:50.727Z,4.80
2023-08-04T15:31:19.025Z,3.70
2023-08-04T15:33:47.181Z,2.33
2023-08-04T15:36:15.299Z,2.83
2023-08-04T15:38:43.406Z,2.70
2023-08-04T15:41:11.714Z,2.10
2023-08-04T15:43:41.892Z,2.30
2023-08-04T15:46:11.436Z,2.10
2023-08-04T15:48:39.522Z,1.90
2023-08-04T15:51:07.560Z,1.83
2023-08-04T15:53:35.619Z,2.00
2023-08-04T15:56:03.776Z,1.90
2023-08-04T15:58:31.844Z,2.53
2023-08-04T16:01:02.329Z,2.00
2023-08-04T16:03:31.748Z,2.13
2023-08-04T16:06:01.890Z,1.90
2023-08-04T16:08:31.212Z,1.50
2023-08-04T16:10:59.749Z,2.17
2023-08-04T16:13:27.931Z,2.00
2023-08-04T16:16:03.753Z,1.80
2023-08-04T16:18:34.316Z,1.80
2023-08-04T16:21:03.150Z,2.00
2023-08-04T16:23:31.505Z,2.37
2023-08-04T16:25:59.774Z,2.37
2023-08-04T16:28:31.726Z,2.80
2023-08-04T16:31:00.889Z,2.00
2023-08-04T16:33:29.026Z,3.37
2023-08-04T16:35:58.779Z,2.13
2023-08-04T16:38:26.834Z,9.70
2023-08-04T16:40:58.381Z,4.40
2023-08-04T16:43:26.653Z,2.87
2023-08-04T16:45:55.859Z,4.10
2023-08-04T16:48:23.990Z,3.07
2023-08-04T16:50:52.137Z,3.07
2023-08-04T16:53:21.631Z,3.00
2023-08-04T16:55:52.983Z,2.83
2023-08-04T16:58:21.079Z,3.13
2023-08-04T17:00:49.157Z,3.60
2023-08-04T17:03:17.238Z,2.90
2023-08-04T17:05:45.320Z,2.20
2023-08-04T17:08:13.379Z,3.23
2023-08-04T17:10:42.821Z,2.93
2023-08-04T17:13:10.883Z,4.10
2023-08-04T17:15:41.206Z,3.20
2023-08-04T17:18:12.456Z,3.70
2023-08-04T17:20:41.140Z,3.77
2023-08-04T17:23:09.293Z,3.30
2023-08-04T17:25:37.397Z,2.90
2023-08-04T17:28:06.964Z,4.40
2023-08-04T17:30:35.146Z,2.90
2023-08-04T17:33:03.576Z,3.87
2023-08-04T17:35:31.720Z,4.47
2023-08-04T17:37:59.835Z,4.10
2023-08-04T17:40:28.128Z,3.10
2023-08-04T17:42:56.272Z,2.93
2023-08-04T17:45:25.826Z,1.97
2023-08-04T17:47:54.023Z,2.33
2023-08-04T17:50:22.138Z,1.73
2023-08-04T17:52:52.528Z,2.50
2023-08-04T17:55:20.607Z,1.93
2023-08-04T17:57:48.739Z,2.20
2023-08-04T18:00:17.222Z,1.50
2023-08-04T18:02:47.909Z,1.97
2023-08-04T18:05:16.412Z,1.70
2023-08-04T18:07:44.840Z,1.67
2023-08-04T18:10:14.860Z,1.77
2023-08-04T18:12:45.048Z,2.37
2023-08-04T18:15:14.566Z,2.17
2023-08-04T18:17:44.007Z,2.00
2023-08-04T18:20:15.594Z,2.17
2023-08-04T18:22:47.103Z,2.10
2023-08-04T18:25:16.470Z,2.10
2023-08-04T18:27:45.820Z,2.57
2023-08-04T18:30:15.358Z,2.07
2023-08-04T18:32:44.615Z,2.20
2023-08-04T18:35:15.322Z,1.77
2023-08-04T18:37:44.648Z,2.17
2023-08-04T18:40:14.563Z,2.00
2023-08-04T18:42:44.118Z,2.27
2023-08-04T18:45:14.297Z,2.00
2023-08-04T18:47:44.016Z,1.83
2023-08-04T18:50:14.804Z,2.37
2023-08-04T18:52:43.673Z,2.80
2023-08-04T18:55:12.947Z,2.70
2023-08-04T18:57:42.237Z,3.00
2023-08-04T19:00:11.054Z,3.00
2023-08-04T19:02:39.454Z,3.07
2023-08-04T19:05:08.661Z,3.70
2023-08-04T19:07:38.501Z,3.60
2023-08-04T19:10:09.169Z,3.00
2023-08-04T19:12:37.733Z,3.67
2023-08-04T19:15:06.708Z,4.03
2023-08-04T19:17:35.087Z,3.47
2023-08-04T19:20:04.564Z,3.57
2023-08-04T19:22:33.618Z,4.93
2023-08-04T19:25:04.347Z,4.00
2023-08-04T19:27:32.713Z,3.83
2023-08-04T19:30:01.075Z,4.67
2023-08-04T19:32:31.396Z,5.37
2023-08-04T19:34:59.969Z,5.60
2023-08-04T19:37:28.354Z,5.30
2023-08-04T19:39:56.774Z,4.73
2023-08-04T19:42:26.848Z,5.10
2023-08-04T19:44:55.515Z,6.10
2023-08-04T19:47:23.899Z,5.37
2023-08-04T19:49:52.277Z,5.20
2023-08-04T19:52:20.613Z,4.20
2023-08-04T19:54:48.991Z,5.17
2023-08-04T19:57:17.382Z,5.27
2023-08-04T19:59:47.138Z,4.23
2023-08-04T20:02:15.607Z,4.73
2023-08-04T20:04:43.988Z,6.07
2023-08-04T20:07:12.378Z,5.00
2023-08-04T20:09:40.762Z,4.77
2023-08-04T20:12:09.608Z,6.40
2023-08-04T20:14:37.974Z,5.50
2023-08-04T20:17:07.954Z,6.10
2023-08-04T20:19:36.366Z,5.33
2023-08-04T20:22:04.767Z,5.60
2023-08-04T20:24:33.108Z,5.97
2023-08-04T20:27:01.440Z,4.67
2023-08-04T20:29:29.824Z,6.43
2023-08-04T20:31:58.241Z,5.23
2023-08-04T20:34:27.953Z,5.20
2023-08-04T20:36:56.325Z,5.43
2023-08-04T20:39:24.714Z,5.50
2023-08-04T20:41:53.098Z,4.80
2023-08-04T20:44:21.457Z,5.60
2023-08-04T20:46:50.328Z,5.17
2023-08-04T20:49:18.961Z,6.00
2023-08-04T20:51:48.800Z,4.77
2023-08-04T20:54:17.215Z,5.57
2023-08-04T20:56:45.629Z,4.80
2023-08-04T20:59:14.066Z,5.77
2023-08-04T21:01:42.491Z,5.30
2023-08-04T21:04:10.897Z,5.53
2023-08-04T21:06:40.283Z,4.60
2023-08-04T21:09:11.872Z,5.00
2023-08-04T21:11:40.298Z,6.17
2023-08-04T21:14:08.660Z,4.70
2023-08-04T21:16:37.070Z,5.17
2023-08-04T21:19:05.482Z,5.00
2023-08-04T21:21:35.956Z,5.40
2023-08-04T21:24:04.447Z,5.23
2023-08-04T21:26:34.205Z,5.30
2023-08-04T21:29:02.578Z,4.93
2023-08-04T21:31:31.348Z,5.00
2023-08-04T21:33:59.725Z,4.97
2023-08-04T21:36:28.072Z,4.27
2023-08-04T21:38:56.470Z,5.00
2023-08-04T21:41:25.013Z,4.30
2023-08-04T21:43:54.787Z,5.20
2023-08-04T21:46:23.258Z,5.47
2023-08-04T21:48:51.631Z,5.47
2023-08-04T21:51:19.961Z,4.20
2023-08-04T21:53:48.691Z,6.20
2023-08-04T21:56:17.133Z,5.27
2023-08-04T21:58:45.542Z,5.23
2023-08-04T22:01:15.350Z,5.30
2023-08-04T22:03:43.807Z,5.90
2023-08-04T22:06:12.182Z,5.10
2023-08-04T22:08:40.604Z,5.10
2023-08-04T22:11:09.717Z,5.43
2023-08-04T22:13:38.283Z,5.00
2023-08-04T22:16:07.305Z,5.53
2023-08-04T22:18:37.174Z,5.53
2023-08-04T22:21:06.482Z,5.27
2023-08-04T22:23:35.151Z,5.70
2023-08-04T22:26:04.376Z,5.10
2023-08-04T22:28:33.621Z,6.00
2023-08-04T22:31:02.238Z,6.33
2023-08-04T22:33:32.116Z,5.07
2023-08-04T22:36:01.997Z,5.57
2023-08-04T22:38:30.347Z,5.63
2023-08-04T22:40:58.970Z,6.10
2023-08-04T22:43:27.474Z,5.90
2023-08-04T22:45:55.961Z,6.10
2023-08-04T22:48:24.468Z,4.93
2023-08-04T22:50:52.848Z,5.53
2023-08-04T22:53:22.616Z,4.90
2023-08-04T22:55:50.996Z,4.97
2023-08-04T22:58:19.370Z,5.30
2023-08-04T23:00:47.808Z,5.07
2023-08-04T23:03:16.252Z,5.53
2023-08-04T23:05:44.624Z,6.47
2023-08-04T23:08:12.981Z,5.10
2023-08-04T23:10:42.732Z,5.30
2023-08-04T23:13:11.875Z,5.23
2023-08-04T23:15:40.258Z,6.27
2023-08-04T23:18:08.683Z,5.00
2023-08-04T23:20:37.418Z,5.33
2023-08-04T23:23:06.450Z,6.10
2023-08-04T23:25:34.875Z,6.67
2023-08-04T23:28:04.608Z,5.13
2023-08-04T23:30:33.001Z,5.83
2023-08-04T23:33:01.427Z,5.33
2023-08-04T23:35:29.867Z,5.23
2023-08-04T23:37:58.274Z,5.10
2023-08-04T23:40:26.613Z,5.33
2023-08-04T23:42:55.008Z,5.30
2023-08-04T23:45:24.769Z,4.97
2023-08-04T23:47:53.198Z,4.90
2023-08-04T23:50:21.748Z,6.00
2023-08-04T23:52:50.185Z,4.53
2023-08-04T23:55:18.722Z,5.10
2023-08-04T23:57:47.160Z,5.10
